< < Back
Terminal Aerodrome Forecast


Current Version              Previous Versions:   1  2  3  4  5  6  7  8  9  

Terminal Aerodrome Forecast

975
FTUS42 KMLB 220900 AAA
TAFMCO
TAF AMD
KMCO 220902Z 2209/2306 VRB04KT P6SM FEW005 SCT020 OVC060
      TEMPO 2209/2213 5SM -RA BR BKN005 OVC020
     FM221600 17009KT P6SM VCSH SCT020 BKN050 BKN100=

Latest METAR

263
SAUS70 KWBC 221700 RRI
MTRMCO
METAR KMCO 221653Z 17009KT 10SM FEW022 FEW150 OVC230 24/19 A2999 RMK AO2
SLP155 T02390194


USA.gov is the U.S. government's official web portal to all federal, state and local government web resources and services.